createdAt,value
2018-06-10T00:00:49.000Z,1004.914
2018-06-10T00:10:49.000Z,1004.858
2018-06-10T00:20:49.000Z,1004.982
2018-06-10T00:30:49.000Z,1004.725
2018-06-10T00:40:49.000Z,1004.51
2018-06-10T00:50:49.000Z,1004.583
2018-06-10T01:00:51.000Z,1004.484
2018-06-10T01:10:49.000Z,1004.446
2018-06-10T01:20:49.000Z,1004.697
2018-06-10T01:30:49.000Z,1004.804
2018-06-10T01:40:49.000Z,1004.593
2018-06-10T01:50:49.000Z,1004.475
2018-06-10T02:00:49.000Z,1004.484
2018-06-10T02:10:49.000Z,1004.475
2018-06-10T02:20:49.000Z,1004.428
2018-06-10T02:30:49.000Z,1004.454
2018-06-10T02:40:49.000Z,1004.547
2018-06-10T02:50:49.000Z,1004.464
2018-06-10T03:00:49.000Z,1004.425
2018-06-10T03:10:49.000Z,1004.436
2018-06-10T03:20:49.000Z,1004.46
2018-06-10T03:30:49.000Z,1004.476
2018-06-10T03:40:49.000Z,1004.592
2018-06-10T03:50:49.000Z,1004.66
2018-06-10T04:00:50.000Z,1004.688
2018-06-10T04:10:49.000Z,1004.641
2018-06-10T04:20:49.000Z,1004.708
2018-06-10T04:30:49.000Z,1004.696
2018-06-10T04:40:49.000Z,1004.68
2018-06-10T04:50:49.000Z,1004.5
2018-06-10T05:00:49.000Z,1004.438
2018-06-10T05:10:49.000Z,1004.348
2018-06-10T05:20:49.000Z,1004.321
2018-06-10T05:30:49.000Z,1004.325
2018-06-10T05:40:49.000Z,1004.449
2018-06-10T05:50:49.000Z,1004.508
2018-06-10T06:00:49.000Z,1004.56
2018-06-10T06:10:49.000Z,1004.582
2018-06-10T06:20:49.000Z,1004.676
2018-06-10T06:30:49.000Z,1004.714
2018-06-10T06:40:49.000Z,1004.774
2018-06-10T06:50:50.000Z,1004.826
2018-06-10T07:00:50.000Z,1004.861
2018-06-10T07:10:50.000Z,1004.965
2018-06-10T07:20:50.000Z,1004.963
2018-06-10T07:30:50.000Z,1005.04
2018-06-10T07:40:50.000Z,1004.979
2018-06-10T07:50:50.000Z,1005.008
2018-06-10T08:00:50.000Z,1005.003
2018-06-10T08:10:50.000Z,1005.039
2018-06-10T08:20:50.000Z,1005.01
2018-06-10T08:30:50.000Z,1004.938
2018-06-10T08:40:50.000Z,1004.818
2018-06-10T08:50:50.000Z,1004.905
2018-06-10T09:00:50.000Z,1004.95
2018-06-10T09:10:51.000Z,1004.943
2018-06-10T09:20:50.000Z,1005.002
2018-06-10T09:30:50.000Z,1005.057
2018-06-10T09:40:50.000Z,1005.048
2018-06-10T09:50:50.000Z,1004.998
2018-06-10T10:00:50.000Z,1005.04
2018-06-10T10:10:50.000Z,1005.072
2018-06-10T10:20:50.000Z,1005.129
2018-06-10T10:30:50.000Z,1005.141
2018-06-10T10:40:50.000Z,1005.134
2018-06-10T10:50:50.000Z,1005.211
2018-06-10T11:00:50.000Z,1005.218
2018-06-10T11:10:50.000Z,1005.194
2018-06-10T11:20:50.000Z,1005.171
2018-06-10T11:30:50.000Z,1005.256
2018-06-10T11:40:50.000Z,1005.229
2018-06-10T11:50:50.000Z,1005.219
2018-06-10T12:00:50.000Z,1005.264
2018-06-10T12:10:50.000Z,1005.225
2018-06-10T12:20:50.000Z,1005.276
2018-06-10T12:30:50.000Z,1005.286
2018-06-10T12:40:52.000Z,1005.321
2018-06-10T12:50:50.000Z,1005.238
2018-06-10T13:00:50.000Z,1005.14
2018-06-10T13:10:50.000Z,1005.043
2018-06-10T13:20:50.000Z,1004.996
2018-06-10T13:30:50.000Z,1004.996
2018-06-10T13:40:50.000Z,1004.961
2018-06-10T13:50:52.000Z,1004.859
2018-06-10T14:00:50.000Z,1004.836
2018-06-10T14:10:50.000Z,1004.754
2018-06-10T14:20:50.000Z,1004.651
2018-06-10T14:30:50.000Z,1004.481
2018-06-10T14:40:50.000Z,1004.395
2018-06-10T14:50:50.000Z,1004.511
2018-06-10T15:00:50.000Z,1004.553
2018-06-10T15:10:51.000Z,1004.498
2018-06-10T15:20:51.000Z,1004.575
2018-06-10T15:30:51.000Z,1004.61
2018-06-10T15:40:51.000Z,1004.576
2018-06-10T15:50:51.000Z,1004.423
2018-06-10T16:00:52.000Z,1004.295
2018-06-10T16:10:52.000Z,1004.246
2018-06-10T16:20:51.000Z,1004.13
2018-06-10T16:30:51.000Z,1004.074
2018-06-10T16:40:54.000Z,1004.167
2018-06-10T16:50:51.000Z,1004.229
2018-06-10T17:00:51.000Z,1004.213
2018-06-10T17:10:51.000Z,1004.221
2018-06-10T17:20:51.000Z,1004.366
2018-06-10T17:30:51.000Z,1004.396
2018-06-10T17:40:51.000Z,1004.512
2018-06-10T17:50:51.000Z,1004.563
2018-06-10T18:00:51.000Z,1004.686
2018-06-10T18:10:54.000Z,1004.759
2018-06-10T18:20:51.000Z,1004.773
2018-06-10T18:30:51.000Z,1004.822
2018-06-10T18:40:51.000Z,1004.818
2018-06-10T18:50:51.000Z,1004.745
2018-06-10T19:00:53.000Z,1004.842
2018-06-10T19:10:51.000Z,1004.924
2018-06-10T19:20:51.000Z,1005.235
2018-06-10T19:30:52.000Z,1005.329
2018-06-10T19:40:51.000Z,1005.498
2018-06-10T19:50:51.000Z,1005.615
2018-06-10T20:00:52.000Z,1005.624
2018-06-10T20:10:51.000Z,1005.698
2018-06-10T20:20:53.000Z,1005.91
2018-06-10T20:30:51.000Z,1005.94
2018-06-10T20:40:51.000Z,1006.07
2018-06-10T20:50:51.000Z,1006.107
2018-06-10T21:00:51.000Z,1006.213
2018-06-10T21:10:51.000Z,1006.353
2018-06-10T21:20:51.000Z,1006.446
2018-06-10T21:40:51.000Z,1006.55
2018-06-10T21:50:51.000Z,1006.494
2018-06-10T22:10:51.000Z,1006.473
2018-06-10T22:20:51.000Z,1006.479
2018-06-10T22:30:52.000Z,1006.488
2018-06-10T22:40:51.000Z,1006.631
2018-06-10T23:00:51.000Z,1006.476
2018-06-10T23:10:51.000Z,1006.704
2018-06-10T23:20:51.000Z,1006.543
2018-06-10T23:30:52.000Z,1006.512
2018-06-10T23:40:52.000Z,1006.413
2018-06-10T23:50:52.000Z,1006.413
